createdAt,value
2018-11-05T00:01:25.510Z,7.40
2018-11-05T00:04:03.755Z,7.30
2018-11-05T00:06:37.877Z,7.30
2018-11-05T00:09:13.604Z,7.30
2018-11-05T00:11:48.197Z,7.30
2018-11-05T00:14:23.211Z,7.30
2018-11-05T00:16:57.369Z,7.30
2018-11-05T00:19:31.713Z,7.30
2018-11-05T00:22:08.149Z,7.30
2018-11-05T00:24:44.659Z,7.30
2018-11-05T00:27:19.459Z,7.40
2018-11-05T00:29:57.977Z,7.40
2018-11-05T00:32:32.999Z,7.40
2018-11-05T00:35:11.647Z,7.40
2018-11-05T00:37:51.985Z,7.40
2018-11-05T00:40:26.703Z,7.40
2018-11-05T00:43:05.279Z,7.40
2018-11-05T00:45:40.152Z,7.40
2018-11-05T00:48:18.850Z,7.30
2018-11-05T00:50:53.460Z,7.30
2018-11-05T00:53:31.984Z,7.30
2018-11-05T00:56:06.346Z,7.30
2018-11-05T00:58:40.709Z,7.30
2018-11-05T01:01:17.032Z,7.20
2018-11-05T01:03:53.283Z,7.20
2018-11-05T01:06:36.388Z,7.30
2018-11-05T01:09:10.976Z,7.30
2018-11-05T01:11:45.541Z,7.30
2018-11-05T01:14:19.898Z,7.30
2018-11-05T01:16:56.085Z,7.20
2018-11-05T01:19:32.196Z,7.20
2018-11-05T01:22:07.342Z,7.20
2018-11-05T01:24:41.563Z,7.20
2018-11-05T01:27:16.545Z,7.10
2018-11-05T01:29:54.912Z,7.10
2018-11-05T01:32:29.975Z,7.00
2018-11-05T01:35:06.547Z,7.10
2018-11-05T01:37:47.206Z,7.10
2018-11-05T01:40:23.752Z,7.10
2018-11-05T01:42:58.921Z,7.10
2018-11-05T01:45:37.219Z,7.00
2018-11-05T01:48:15.437Z,7.00
2018-11-05T01:50:50.683Z,7.00
2018-11-05T01:53:24.806Z,7.00
2018-11-05T01:56:03.906Z,7.00
2018-11-05T01:58:44.602Z,7.00
2018-11-05T02:01:18.512Z,7.10
2018-11-05T02:03:56.811Z,7.10
2018-11-05T02:06:37.153Z,7.10
2018-11-05T02:09:14.051Z,7.00
2018-11-05T02:11:49.248Z,7.00
2018-11-05T02:14:27.507Z,7.00
2018-11-05T02:17:02.390Z,6.90
2018-11-05T02:19:36.482Z,6.90
2018-11-05T02:22:13.101Z,6.80
2018-11-05T02:24:52.152Z,6.80
2018-11-05T02:27:28.861Z,6.70
2018-11-05T02:30:05.772Z,6.70
2018-11-05T02:32:44.606Z,6.60
2018-11-05T02:35:21.805Z,6.60
2018-11-05T02:38:04.090Z,6.60
2018-11-05T02:43:13.440Z,6.50
2018-11-05T02:45:48.599Z,6.50
2018-11-05T02:48:31.181Z,6.50
2018-11-05T02:51:12.381Z,6.50
2018-11-05T02:53:59.432Z,6.50
2018-11-05T02:56:35.120Z,6.50
2018-11-05T02:59:11.412Z,6.50
2018-11-05T03:01:49.794Z,6.50
2018-11-05T03:04:35.078Z,6.50
2018-11-05T03:07:13.916Z,6.50
2018-11-05T03:09:49.704Z,6.50
2018-11-05T03:12:25.468Z,6.50
2018-11-05T03:15:06.523Z,6.50
2018-11-05T03:17:42.096Z,6.60
2018-11-05T03:20:13.152Z,6.70
2018-11-05T03:22:53.455Z,6.70
2018-11-05T03:25:28.837Z,6.80
2018-11-05T03:28:04.101Z,6.80
2018-11-05T03:30:38.335Z,6.90
2018-11-05T03:33:14.183Z,6.90
2018-11-05T03:35:46.066Z,6.90
2018-11-05T03:38:23.570Z,6.90
2018-11-05T03:40:58.422Z,6.90
2018-11-05T03:43:39.353Z,6.90
2018-11-05T03:46:19.774Z,6.90
2018-11-05T03:48:54.942Z,7.00
2018-11-05T03:51:29.999Z,6.90
2018-11-05T03:54:04.286Z,6.90
2018-11-05T03:56:40.758Z,6.90
2018-11-05T03:59:12.418Z,7.00
2018-11-05T04:01:48.101Z,6.90
2018-11-05T04:04:24.100Z,6.90
2018-11-05T04:06:58.359Z,6.80
2018-11-05T04:12:29.249Z,6.80
2018-11-05T04:15:03.975Z,6.80
2018-11-05T04:17:36.066Z,6.80
2018-11-05T04:20:10.062Z,6.80
2018-11-05T04:22:45.354Z,6.80
2018-11-05T04:25:17.762Z,6.90
2018-11-05T04:27:52.239Z,6.90
2018-11-05T04:30:26.135Z,6.80
2018-11-05T04:33:01.032Z,6.80
2018-11-05T04:35:37.209Z,6.70
2018-11-05T04:38:12.403Z,6.70
2018-11-05T04:40:47.009Z,6.70
2018-11-05T04:43:21.325Z,6.80
2018-11-05T04:45:56.233Z,6.80
2018-11-05T04:48:34.219Z,6.80
2018-11-05T04:51:10.195Z,6.90
2018-11-05T04:53:44.345Z,6.90
2018-11-05T04:56:22.221Z,6.90
2018-11-05T04:58:56.246Z,6.90
2018-11-05T05:01:32.430Z,6.90
2018-11-05T05:04:12.792Z,6.90
2018-11-05T05:06:47.654Z,6.90
2018-11-05T05:09:22.483Z,6.80
2018-11-05T05:11:56.660Z,6.80
2018-11-05T05:14:26.405Z,6.80
2018-11-05T05:16:54.913Z,6.90
2018-11-05T05:19:31.424Z,6.80
2018-11-05T05:22:05.615Z,6.80
2018-11-05T05:24:41.383Z,6.80
2018-11-05T05:27:19.390Z,6.90
2018-11-05T05:29:54.608Z,6.90
2018-11-05T05:32:36.255Z,6.80
2018-11-05T05:35:13.058Z,6.80
2018-11-05T05:37:55.681Z,6.70
2018-11-05T05:40:33.702Z,6.60
2018-11-05T05:43:07.900Z,6.60
2018-11-05T05:45:42.024Z,6.60
2018-11-05T05:48:14.385Z,6.60
2018-11-05T05:50:49.010Z,6.60
2018-11-05T05:53:17.596Z,6.60
2018-11-05T05:55:46.190Z,6.60
2018-11-05T05:58:14.698Z,6.60
2018-11-05T06:00:43.266Z,6.50
2018-11-05T06:03:11.814Z,6.60
2018-11-05T06:05:46.109Z,6.60
2018-11-05T06:08:28.472Z,6.60
2018-11-05T06:11:03.061Z,6.50
2018-11-05T06:13:31.550Z,6.50
2018-11-05T06:16:00.185Z,6.60
2018-11-05T06:18:28.619Z,6.60
2018-11-05T06:20:57.138Z,6.50
2018-11-05T06:23:25.738Z,6.60
2018-11-05T06:26:01.076Z,6.50
2018-11-05T06:31:29.521Z,6.50
2018-11-05T06:34:05.676Z,6.60
2018-11-05T06:36:35.388Z,6.50
2018-11-05T06:39:11.162Z,6.60
2018-11-05T06:41:45.447Z,6.60
2018-11-05T06:44:20.092Z,6.50
2018-11-05T06:46:54.802Z,6.50
2018-11-05T06:49:29.117Z,6.60
2018-11-05T06:52:07.222Z,6.60
2018-11-05T06:54:45.582Z,6.70
2018-11-05T06:57:19.867Z,6.70
2018-11-05T06:59:50.611Z,6.80
2018-11-05T07:02:28.592Z,6.70
2018-11-05T07:05:05.586Z,6.80
2018-11-05T07:07:43.062Z,6.80
2018-11-05T07:10:17.912Z,6.80
2018-11-05T07:12:52.340Z,6.80
2018-11-05T07:15:28.315Z,6.90
2018-11-05T07:18:10.422Z,6.90
2018-11-05T07:20:54.638Z,6.90
2018-11-05T07:23:29.240Z,6.90
2018-11-05T07:26:05.746Z,6.90
2018-11-05T07:28:40.085Z,6.90
2018-11-05T07:31:14.157Z,7.00
2018-11-05T07:33:52.429Z,6.90
2018-11-05T07:36:24.339Z,6.90
2018-11-05T07:39:03.027Z,7.00
2018-11-05T07:41:41.459Z,7.00
2018-11-05T07:44:15.425Z,7.10
2018-11-05T07:46:49.449Z,7.20
2018-11-05T07:49:27.921Z,7.30
2018-11-05T07:52:02.709Z,7.40
2018-11-05T07:54:31.281Z,7.40
2018-11-05T07:57:03.099Z,7.30
2018-11-05T07:59:33.345Z,7.40
2018-11-05T08:02:06.307Z,7.40
2018-11-05T08:04:41.804Z,7.40
2018-11-05T08:07:16.043Z,7.50
2018-11-05T08:09:50.033Z,7.50
2018-11-05T08:12:19.665Z,7.50
2018-11-05T08:15:00.388Z,7.50
2018-11-05T08:17:44.567Z,7.50
2018-11-05T08:20:13.151Z,7.60
2018-11-05T08:22:49.660Z,7.60
2018-11-05T08:25:30.165Z,7.70
2018-11-05T08:28:02.243Z,7.70
2018-11-05T08:30:36.605Z,8.00
2018-11-05T08:33:05.272Z,8.40
2018-11-05T08:35:33.732Z,9.10
2018-11-05T08:38:04.016Z,9.70
2018-11-05T08:40:32.564Z,10.30
2018-11-05T08:43:01.160Z,10.70
2018-11-05T08:45:30.395Z,11.30
2018-11-05T08:47:58.954Z,11.10
2018-11-05T08:50:27.580Z,10.10
2018-11-05T08:52:56.322Z,10.00
2018-11-05T08:55:25.998Z,10.00
2018-11-05T08:57:54.618Z,10.20
2018-11-05T09:00:34.133Z,10.00
2018-11-05T09:03:02.676Z,9.70
2018-11-05T09:05:31.178Z,9.70
2018-11-05T09:07:59.789Z,9.80
2018-11-05T09:10:28.474Z,9.90
2018-11-05T09:12:56.744Z,10.20
2018-11-05T09:15:25.251Z,10.30
2018-11-05T09:17:53.759Z,10.50
2018-11-05T09:20:22.251Z,10.80
2018-11-05T09:22:51.337Z,11.30
2018-11-05T09:25:19.801Z,11.50
2018-11-05T09:27:48.336Z,10.80
2018-11-05T09:30:18.304Z,10.70
2018-11-05T09:32:47.079Z,10.50
2018-11-05T09:35:15.694Z,11.00
2018-11-05T09:37:44.390Z,10.50
2018-11-05T09:40:14.958Z,10.30
2018-11-05T09:42:44.125Z,10.50
2018-11-05T09:45:22.487Z,10.80
2018-11-05T09:47:51.011Z,10.70
2018-11-05T09:50:19.905Z,10.50
2018-11-05T09:52:48.396Z,10.30
2018-11-05T09:55:16.952Z,10.50
2018-11-05T09:57:45.494Z,10.70
2018-11-05T10:00:18.388Z,10.80
2018-11-05T10:02:52.207Z,10.90
2018-11-05T10:05:20.799Z,11.00
2018-11-05T10:07:49.163Z,10.80
2018-11-05T10:10:19.011Z,11.00
2018-11-05T10:12:47.517Z,11.10
2018-11-05T10:15:16.977Z,10.70
2018-11-05T10:17:45.492Z,10.40
2018-11-05T10:20:16.338Z,10.60
2018-11-05T10:22:45.222Z,10.70
2018-11-05T10:25:14.224Z,10.80
2018-11-05T10:27:42.720Z,10.90
2018-11-05T10:30:13.727Z,10.60
2018-11-05T10:32:42.690Z,10.80
2018-11-05T10:35:11.782Z,10.90
2018-11-05T10:37:40.485Z,11.20
2018-11-05T10:40:18.554Z,11.40
2018-11-05T10:42:47.530Z,11.20
2018-11-05T10:45:19.181Z,11.20
2018-11-05T10:47:47.896Z,10.80
2018-11-05T10:50:17.690Z,10.80
2018-11-05T10:52:50.242Z,10.80
2018-11-05T10:55:18.766Z,11.00
2018-11-05T10:57:47.399Z,11.10
2018-11-05T11:00:23.093Z,11.20
2018-11-05T11:02:56.797Z,11.00
2018-11-05T11:05:25.917Z,10.80
2018-11-05T11:07:55.675Z,10.80
2018-11-05T11:10:24.951Z,10.80
2018-11-05T11:12:53.482Z,10.70
2018-11-05T11:15:22.394Z,10.90
2018-11-05T11:17:50.827Z,10.80
2018-11-05T11:20:19.325Z,10.70
2018-11-05T11:22:47.893Z,10.80
2018-11-05T11:25:16.374Z,11.10
2018-11-05T11:27:44.865Z,10.80
2018-11-05T11:30:14.348Z,10.70
2018-11-05T11:32:43.413Z,11.00
2018-11-05T11:35:12.404Z,11.00
2018-11-05T11:37:41.021Z,11.10
2018-11-05T11:40:11.208Z,11.00
2018-11-05T11:42:40.668Z,11.00
2018-11-05T11:45:09.681Z,11.30
2018-11-05T11:47:38.344Z,10.90
2018-11-05T11:50:08.364Z,10.70
2018-11-05T11:52:36.994Z,10.70
2018-11-05T11:55:06.588Z,10.60
2018-11-05T11:57:35.102Z,10.60
2018-11-05T12:00:03.552Z,10.60
2018-11-05T12:02:32.071Z,10.50
2018-11-05T12:05:00.635Z,10.40
2018-11-05T12:07:29.082Z,10.60
2018-11-05T12:09:57.589Z,10.70
2018-11-05T12:12:26.072Z,10.80
2018-11-05T12:14:54.698Z,11.10
2018-11-05T12:17:23.096Z,11.10
2018-11-05T12:19:51.654Z,10.90
2018-11-05T12:22:20.155Z,10.90
2018-11-05T12:24:48.692Z,11.00
2018-11-05T12:27:17.159Z,11.10
2018-11-05T12:29:45.712Z,11.30
2018-11-05T12:32:14.235Z,11.30
2018-11-05T12:34:42.707Z,11.50
2018-11-05T12:37:11.195Z,11.30
2018-11-05T12:39:40.434Z,11.40
2018-11-05T12:42:08.955Z,11.50
2018-11-05T12:44:37.614Z,11.60
2018-11-05T12:47:06.083Z,11.40
2018-11-05T12:49:34.582Z,11.60
2018-11-05T12:52:03.044Z,11.40
2018-11-05T12:54:31.491Z,11.50
2018-11-05T12:56:59.958Z,11.70
2018-11-05T12:59:28.379Z,11.50
2018-11-05T13:01:58.307Z,11.40
2018-11-05T13:04:27.248Z,11.50
2018-11-05T13:06:56.048Z,11.40
2018-11-05T13:09:24.455Z,11.40
2018-11-05T13:11:53.012Z,11.30
2018-11-05T13:14:21.774Z,11.20
2018-11-05T13:16:50.302Z,11.20
2018-11-05T13:19:18.826Z,11.40
2018-11-05T13:21:47.369Z,11.50
2018-11-05T13:24:15.894Z,11.60
2018-11-05T13:26:44.345Z,11.50
2018-11-05T13:29:12.834Z,11.60
2018-11-05T13:31:41.294Z,11.80
2018-11-05T13:34:09.766Z,11.60
2018-11-05T13:36:38.512Z,11.70
2018-11-05T13:39:08.486Z,11.80
2018-11-05T13:41:37.054Z,11.70
2018-11-05T13:44:05.593Z,11.60
2018-11-05T13:46:34.858Z,11.50
2018-11-05T13:49:03.162Z,11.40
2018-11-05T13:51:31.599Z,11.40
2018-11-05T13:54:00.121Z,11.30
2018-11-05T13:56:28.689Z,11.30
2018-11-05T13:58:57.307Z,11.40
2018-11-05T14:01:25.883Z,11.50
2018-11-05T14:03:54.324Z,11.60
2018-11-05T14:06:23.016Z,11.60
2018-11-05T14:08:51.571Z,11.60
2018-11-05T14:11:20.033Z,11.40
2018-11-05T14:13:48.646Z,11.30
2018-11-05T14:16:17.147Z,11.10
2018-11-05T14:18:45.701Z,11.10
2018-11-05T14:21:14.197Z,11.00
2018-11-05T14:23:42.715Z,11.00
2018-11-05T14:26:11.308Z,11.10
2018-11-05T14:28:39.979Z,11.10
2018-11-05T14:31:08.394Z,11.00
2018-11-05T14:33:36.892Z,10.90
2018-11-05T14:36:05.518Z,11.00
2018-11-05T14:38:34.149Z,11.10
2018-11-05T14:41:02.711Z,11.10
2018-11-05T14:43:31.656Z,11.10
2018-11-05T14:46:00.160Z,11.00
2018-11-05T14:48:28.683Z,10.90
2018-11-05T14:50:57.122Z,10.90
2018-11-05T14:53:25.755Z,11.00
2018-11-05T14:55:54.204Z,11.00
2018-11-05T14:58:22.676Z,11.00
2018-11-05T15:00:51.187Z,11.00
2018-11-05T15:03:19.794Z,10.90
2018-11-05T15:05:48.359Z,10.80
2018-11-05T15:08:16.846Z,10.90
2018-11-05T15:10:45.335Z,10.80
2018-11-05T15:13:15.501Z,10.90
2018-11-05T15:15:44.091Z,10.80
2018-11-05T15:18:12.638Z,10.80
2018-11-05T15:20:41.252Z,10.70
2018-11-05T15:23:10.667Z,10.80
2018-11-05T15:25:39.146Z,10.80
2018-11-05T15:28:07.701Z,10.80
2018-11-05T15:30:36.223Z,10.80
2018-11-05T15:33:04.750Z,10.80
2018-11-05T15:35:33.215Z,10.80
2018-11-05T15:38:01.677Z,10.80
2018-11-05T15:40:30.145Z,10.70
2018-11-05T15:42:58.713Z,10.80
2018-11-05T15:45:27.160Z,10.80
2018-11-05T15:47:55.685Z,10.90
2018-11-05T15:50:24.199Z,10.80
2018-11-05T15:52:52.837Z,10.80
2018-11-05T15:55:21.192Z,10.90
2018-11-05T15:57:49.751Z,11.00
2018-11-05T16:00:22.488Z,11.00
2018-11-05T16:02:54.110Z,10.80
2018-11-05T16:05:22.638Z,10.70
2018-11-05T16:07:51.205Z,10.60
2018-11-05T16:10:19.862Z,10.70
2018-11-05T16:12:48.396Z,10.70
2018-11-05T16:15:16.844Z,10.70
2018-11-05T16:17:45.393Z,10.70
2018-11-05T16:20:16.040Z,10.60
2018-11-05T16:22:44.886Z,10.60
2018-11-05T16:25:13.361Z,10.60
2018-11-05T16:27:42.154Z,10.70
2018-11-05T16:30:12.470Z,10.70
2018-11-05T16:32:41.404Z,10.60
2018-11-05T16:35:10.029Z,10.60
2018-11-05T16:37:38.622Z,10.60
2018-11-05T16:40:09.164Z,10.70
2018-11-05T16:42:37.923Z,10.70
2018-11-05T16:45:06.806Z,10.70
2018-11-05T16:47:35.558Z,10.60
2018-11-05T16:50:05.097Z,10.60
2018-11-05T16:52:33.595Z,10.60
2018-11-05T16:55:02.141Z,10.60
2018-11-05T16:57:31.275Z,10.50
2018-11-05T16:59:59.703Z,10.50
2018-11-05T17:02:28.488Z,10.60
2018-11-05T17:04:56.886Z,10.40
2018-11-05T17:07:25.407Z,10.30
2018-11-05T17:09:53.945Z,10.20
2018-11-05T17:12:23.115Z,10.20
2018-11-05T17:14:51.555Z,10.10
2018-11-05T17:17:20.055Z,10.10
2018-11-05T17:19:48.629Z,10.00
2018-11-05T17:22:17.196Z,10.10
2018-11-05T17:24:52.170Z,10.10
2018-11-05T17:27:21.315Z,10.10
2018-11-05T17:29:49.805Z,10.20
2018-11-05T17:32:23.849Z,10.10
2018-11-05T17:38:17.481Z,10.10
2018-11-05T17:40:58.302Z,10.10
2018-11-05T17:43:32.890Z,10.20
2018-11-05T17:46:03.028Z,10.20
2018-11-05T17:48:43.272Z,10.20
2018-11-05T17:51:18.560Z,10.20
2018-11-05T17:54:00.716Z,10.20
2018-11-05T18:23:14.577Z,10.00
2018-11-05T18:28:31.976Z,10.00
2018-11-05T18:41:28.819Z,9.90
2018-11-05T19:14:54.985Z,9.50
2018-11-05T19:38:23.776Z,9.60
2018-11-05T19:41:08.226Z,9.70
2018-11-05T19:43:37.966Z,9.70
2018-11-05T19:46:07.241Z,9.70
2018-11-05T19:58:17.434Z,9.70
2018-11-05T20:09:57.181Z,9.70
2018-11-05T20:15:47.745Z,9.60
2018-11-05T20:23:31.651Z,9.70
2018-11-05T20:26:23.457Z,9.70
2018-11-05T20:34:36.925Z,9.40
2018-11-05T20:43:25.324Z,9.20
2018-11-05T20:49:15.043Z,9.10
2018-11-05T21:03:45.898Z,8.80
2018-11-05T21:12:27.778Z,8.80
2018-11-05T21:24:40.275Z,8.80
2018-11-05T21:27:16.567Z,8.90
2018-11-05T21:29:51.102Z,8.90
2018-11-05T21:32:25.429Z,8.90
2018-11-05T21:35:03.985Z,8.90
2018-11-05T21:37:40.899Z,9.00
2018-11-05T21:40:21.392Z,9.00
2018-11-05T21:42:55.425Z,8.90
2018-11-05T21:45:30.135Z,8.90
2018-11-05T21:48:06.425Z,8.90
2018-11-05T21:50:41.081Z,8.80
2018-11-05T21:53:15.504Z,8.90
2018-11-05T21:55:49.917Z,8.80
2018-11-05T21:58:24.233Z,8.80
2018-11-05T22:00:58.773Z,8.70
2018-11-05T22:03:33.632Z,8.70
2018-11-05T22:06:05.947Z,8.60
2018-11-05T22:08:39.813Z,8.50
2018-11-05T22:11:14.250Z,8.50
2018-11-05T22:13:48.414Z,8.40
2018-11-05T22:16:29.224Z,8.40
2018-11-05T22:19:04.138Z,8.30
2018-11-05T22:24:35.480Z,8.30
2018-11-05T22:27:11.621Z,8.20
2018-11-05T22:29:46.004Z,8.20
2018-11-05T22:32:20.092Z,8.20
2018-11-05T22:35:01.164Z,8.10
2018-11-05T22:37:39.494Z,8.10
2018-11-05T22:40:14.564Z,8.10
2018-11-05T22:42:50.646Z,8.10
2018-11-05T22:45:25.179Z,8.10
2018-11-05T22:47:59.357Z,8.10
2018-11-05T22:50:33.470Z,8.00
2018-11-05T22:53:08.595Z,7.90
2018-11-05T22:55:44.900Z,7.80
2018-11-05T22:58:22.883Z,7.80
2018-11-05T23:01:07.064Z,7.80
2018-11-05T23:03:41.672Z,7.80
2018-11-05T23:06:22.232Z,7.80
2018-11-05T23:08:59.104Z,7.80
2018-11-05T23:11:37.264Z,7.70
2018-11-05T23:14:11.684Z,7.70
2018-11-05T23:16:46.744Z,7.70
2018-11-05T23:19:26.876Z,7.60
2018-11-05T23:22:02.295Z,7.60
2018-11-05T23:24:36.324Z,7.60
2018-11-05T23:27:10.809Z,7.60
2018-11-05T23:29:44.800Z,7.60
2018-11-05T23:32:19.131Z,7.50
2018-11-05T23:34:54.439Z,7.60
2018-11-05T23:37:29.747Z,7.80
2018-11-05T23:40:05.415Z,8.00
2018-11-05T23:42:40.425Z,8.10
2018-11-05T23:45:16.105Z,8.20
2018-11-05T23:47:51.697Z,8.20
2018-11-05T23:50:25.785Z,8.20
2018-11-05T23:53:00.063Z,8.30
2018-11-05T23:55:34.224Z,8.30
2018-11-05T23:58:08.352Z,8.40
